Portada
METAR-TAF:

METAR-TAF

Aeroports :

Bagdad, Iraq

latitud: 33-15-45N, longitud: 44-14-04E, altitud: 35 m

Observació

L'informe es va fer fa 52 minuts, a les 13:00 UTC
Vent 5 kt del Oest/Nord-Oest, variant entre Oest i Nord/Nord-Oest
Temperatura 19°C
Humitat 56%
Pressió 1018 hPa
Visibilitat 10 km o més
sense núvols per sota de 1500 mi sense presència de cumulonimbus.

METAR: ORBI 061300Z 30005KT 270V330 CAVOK 19/10 Q1018 NOSIG

Hora: 16:52 (13:52 UTC)

Pronòstic

L'informe es va fer fa 2 hores i 52 minuts, a les 11:00 UTC
Pronòstic vàlid del 06 a les 12 UTC al 07 a les 12 UTC
Vent 4 kt del Oest/Nord-Oest
Visibilitat: 8000 m
Evolucionant progressivament
l' 06 a les 20 UTC al 06 a les 22 UTC
Visibilitat: 4000 m
boirina
Probabilitat 30%
l' 07 a les 02 UTC al 07 a les 07 UTC

TAF: ORBI 061100Z 0612/0712 30004KT 8000 NSC BECMG 0620/0622 4000 BR PROB30 0702/0707 0900FG

Observacions i pronòstics meteorològics de més de 4000 aeroports (METAR i TAF).

Les estacions disponibles són els punts grocs i vermells al mapa.

Posi el ratolí al punt desitjat per veure el nom de l'estació.

Feu clic per veure les observacions i els pronòstics meteorològics.

Per canviar el mapa: feu clic els botons verds amb una creu de color negre per apropar; al botó verd amb un guió per allunyar la imatge; o en les fletxes verdes per a mapes adjacents.


METAR-TAF: